createdAt,value
2023-04-25T00:07:07.757Z,103.7
2023-04-25T00:17:13.981Z,104.3
2023-04-25T00:27:20.189Z,106.6
2023-04-25T00:37:26.416Z,104.3
2023-04-25T00:47:32.628Z,107.2
2023-04-25T00:57:38.834Z,107.2
2023-04-25T01:07:45.077Z,105.3
2023-04-25T01:17:51.270Z,103.7
2023-04-25T01:27:57.476Z,103.7
2023-04-25T01:38:03.729Z,105.9
2023-04-25T01:48:09.930Z,107.9
2023-04-25T01:58:16.157Z,107.5
2023-04-25T02:08:22.346Z,95.9
2023-04-25T02:18:28.584Z,106.6
2023-04-25T02:28:34.840Z,105.6
2023-04-25T02:38:41.045Z,103.7
2023-04-25T02:48:47.262Z,109.8
2023-04-25T02:58:53.463Z,109.1
2023-04-25T03:08:59.697Z,106.6
2023-04-25T03:19:05.902Z,105.9
2023-04-25T03:29:12.127Z,104
2023-04-25T03:39:18.372Z,105.9
2023-04-25T03:49:24.567Z,103.7
2023-04-25T03:59:30.777Z,108.2
2023-04-25T04:09:37.020Z,102.4
2023-04-25T04:19:43.203Z,108.8
2023-04-25T04:29:49.419Z,105
2023-04-25T04:39:55.639Z,103.7
2023-04-25T04:50:01.882Z,107.9
2023-04-25T05:00:08.109Z,101.7
2023-04-25T05:10:14.320Z,104
2023-04-25T05:20:20.538Z,106.2
2023-04-25T05:30:26.759Z,104
2023-04-25T05:40:32.982Z,104
2023-04-25T05:50:39.187Z,104.6
2023-04-25T06:00:45.401Z,106.6
2023-04-25T06:10:51.630Z,104.6
2023-04-25T06:20:57.826Z,100.1
2023-04-25T06:31:04.058Z,104.6
2023-04-25T06:41:10.275Z,104.3
2023-04-25T06:51:16.487Z,102.7
2023-04-25T07:01:22.744Z,110.1
2023-04-25T07:11:28.934Z,106.9
2023-04-25T07:21:35.170Z,104.3
2023-04-25T07:31:41.354Z,104.6
2023-04-25T07:41:47.704Z,107.2
2023-04-25T07:51:53.823Z,105
2023-04-25T08:02:00.024Z,107.2
2023-04-25T08:12:06.251Z,102.1
2023-04-25T08:22:12.469Z,109.1
2023-04-25T08:32:18.825Z,107.9
2023-04-25T08:42:25.057Z,107.2
2023-04-25T08:52:31.307Z,101.1
2023-04-25T09:02:37.562Z,100.8
2023-04-25T09:12:43.741Z,105.9
2023-04-25T09:22:50.077Z,100.1
2023-04-25T09:32:56.020Z,102.1
2023-04-25T09:43:02.257Z,105
2023-04-25T09:53:08.606Z,105.6
2023-04-25T10:03:14.668Z,105.6
2023-04-25T10:13:20.918Z,104.6
2023-04-25T10:23:27.111Z,104.3
2023-04-25T10:33:33.302Z,102.1
2023-04-25T10:43:39.540Z,107.5
2023-04-25T10:53:45.899Z,108.2
2023-04-25T11:03:52.154Z,102.7
2023-04-25T11:13:58.373Z,105.3
2023-04-25T11:24:04.592Z,107.5
2023-04-25T11:34:10.820Z,106.9
2023-04-25T11:44:16.993Z,109.1
2023-04-25T11:54:23.218Z,106.2
2023-04-25T12:04:29.416Z,107.5
2023-04-25T12:14:35.654Z,106.9
2023-04-25T12:24:41.831Z,105
2023-04-25T12:34:48.057Z,107.9
2023-04-25T12:44:54.311Z,101.1
2023-04-25T12:55:00.585Z,107.9
2023-04-25T13:05:06.870Z,101.7
2023-04-25T13:15:12.965Z,109.1
2023-04-25T13:25:19.070Z,105.3
2023-04-25T13:35:25.319Z,104.3
2023-04-25T13:45:31.510Z,104.3
2023-04-25T13:55:37.752Z,108.5
2023-04-25T14:05:44.009Z,110.4
2023-04-25T14:15:50.194Z,107.2
2023-04-25T14:25:56.410Z,105.9
2023-04-25T14:36:02.603Z,104.6
2023-04-25T14:46:08.848Z,108.8
2023-04-25T14:56:15.089Z,105.3
2023-04-25T15:06:21.420Z,105
2023-04-25T15:16:27.636Z,105
2023-04-25T15:26:33.885Z,101.1
2023-04-25T15:36:40.018Z,104.6
2023-04-25T15:46:46.279Z,107.2
2023-04-25T15:56:52.488Z,107.2
2023-04-25T16:06:58.699Z,106.6
2023-04-25T16:17:04.809Z,106.6
2023-04-25T16:27:11.041Z,108.5
2023-04-25T16:37:17.263Z,108.2
2023-04-25T16:47:23.538Z,108.2
2023-04-25T16:57:29.802Z,103
2023-04-25T17:07:35.925Z,108.2
2023-04-25T17:17:42.169Z,110.4
2023-04-25T17:27:48.361Z,107.9
2023-04-25T17:37:54.618Z,105
2023-04-25T17:48:00.856Z,107.2
2023-04-25T17:58:07.036Z,102.4
2023-04-25T18:08:13.298Z,105
2023-04-25T18:18:19.521Z,106.9
2023-04-25T18:28:25.679Z,108.2
2023-04-25T18:43:54.853Z,21.2
2023-04-25T18:57:41.349Z,21.8
2023-04-25T19:00:47.555Z,0
2023-04-25T19:04:31.157Z,20.2
2023-04-25T19:07:37.225Z,21.5
2023-04-25T19:11:03.114Z,21.8
2023-04-25T19:27:49.118Z,22.1
2023-04-25T19:30:55.338Z,21.5
2023-04-25T19:34:01.813Z,21.5
2023-04-25T19:37:07.950Z,21.8
2023-04-25T19:40:14.050Z,21.5
2023-04-25T19:43:20.285Z,21.2
2023-04-25T19:46:26.524Z,21.2
2023-04-25T19:49:32.824Z,21.2
2023-04-25T20:32:09.890Z,0
2023-04-25T20:42:16.697Z,0
2023-04-25T20:58:18.891Z,0
2023-04-25T21:08:23.832Z,0
2023-04-25T21:18:29.573Z,0
2023-04-25T21:28:35.468Z,11
2023-04-25T21:38:41.199Z,10.5
2023-04-25T21:48:47.203Z,10.5
2023-04-25T21:58:53.001Z,10
2023-04-25T22:08:58.786Z,10
2023-04-25T22:19:04.778Z,10
2023-04-25T22:29:10.495Z,0
2023-04-25T22:39:16.398Z,0
2023-04-25T22:49:22.473Z,0
2023-04-25T22:59:28.348Z,0
2023-04-25T23:09:34.433Z,0
